»·PEaware :: N123WA L88-KSBP

N123WA :: L88-KSBP

FLIGHT INFORMATION

Flight Status: Arrived
Operator: Privately registered:
United States
More flights under this callsign
Pilot: Walter A. (18941)
Aircraft: CESSNA 172 SKYHAWK
(C172)
More flights by this aircraft type
Origin: L88 New Cuyama
United States
Destination: KSBP San Luis Co Regl
United States
More flights between these airports :: More routes between these airports
Route: L88 KSBP
File this flight plan on PilotEdge
Remarks: cat 2
Altitude:
(Current/Filed)
6,500ft
Speed:
(Current/Filed)
115kts
Departed: 14-Sep-18 06:34 AM
Arrived: 14-Sep-18 07:07 AM
Distance/Time
Traveled:
50nm/0:33
Distance/Time
To Go:
Arrived

Flight Plot

Page will automatically refresh every two minutes.


Map Options




Map Legend


Flown Route
Filed Route
Departure Airport
Arrival Airport
Navaid (VOR, NDB)
Fix

Horizontal Profiles

Position Reports

Time Latitude Longitude Heading Altitude Ground
Speed
14-Sep-18 06:26 34.942856 -119.690285 204 2156ft 0kts
14-Sep-18 06:27 34.942856 -119.690285 204 2156ft 0kts
14-Sep-18 06:28 34.942856 -119.690285 204 2156ft 0kts
14-Sep-18 06:29 34.942856 -119.690285 204 2156ft 0kts
14-Sep-18 06:30 34.942856 -119.690285 204 2156ft 0kts
14-Sep-18 06:31 34.942832 -119.690299 205 2156ft 2kts
14-Sep-18 06:32 34.943338 -119.691272 295 2153ft 6kts
14-Sep-18 06:33 34.943801 -119.692082 149 2152ft 10kts
14-Sep-18 06:34 34.941617 -119.689518 128 2160ft 16kts
14-Sep-18 06:35 34.938309 -119.681412 112 2193ft 17kts
14-Sep-18 06:36 34.938840 -119.682927 293 2189ft 65kts
14-Sep-18 06:37 34.947175 -119.701530 304 2892ft 76kts
14-Sep-18 06:38 34.957487 -119.729505 292 3597ft 87kts
14-Sep-18 06:39 34.965752 -119.753866 291 4489ft 78kts
14-Sep-18 06:40 34.971352 -119.780067 280 5272ft 78kts
14-Sep-18 06:41 34.979661 -119.804886 283 6016ft 79kts
14-Sep-18 06:42 34.981169 -119.814486 281 6270ft 80kts
14-Sep-18 06:43 34.984456 -119.832304 279 6578ft 91kts
14-Sep-18 06:44 34.978157 -119.862735 278 6616ft 102kts
14-Sep-18 06:45 34.987672 -119.896021 289 6618ft 105kts
14-Sep-18 06:46 35.003306 -119.926131 307 6618ft 106kts
14-Sep-18 06:47 35.021491 -119.954480 307 6618ft 106kts
14-Sep-18 06:48 35.039598 -119.982789 307 6618ft 106kts
14-Sep-18 06:49 35.057750 -120.011251 307 6618ft 106kts
14-Sep-18 06:50 35.075856 -120.039952 301 6618ft 106kts
14-Sep-18 06:51 35.089272 -120.071936 296 6618ft 106kts
14-Sep-18 06:52 35.102040 -120.103060 296 6618ft 106kts
14-Sep-18 06:53 35.110891 -120.137528 284 6618ft 106kts
14-Sep-18 06:54 35.118215 -120.172346 284 6618ft 106kts
14-Sep-18 06:55 35.115250 -120.207739 254 6618ft 106kts
14-Sep-18 06:56 35.112689 -120.243079 276 6618ft 106kts
14-Sep-18 06:57 35.116357 -120.278944 276 6618ft 106kts
14-Sep-18 06:58 35.119964 -120.314554 276 6618ft 106kts
14-Sep-18 06:59 35.123503 -120.349869 276 6618ft 106kts
14-Sep-18 07:00 35.129191 -120.383848 283 6619ft 106kts
14-Sep-18 07:01 35.136591 -120.419377 285 6476ft 114kts
14-Sep-18 07:02 35.145530 -120.457920 286 5595ft 117kts
14-Sep-18 07:03 35.154541 -120.496832 286 4257ft 129kts
14-Sep-18 07:04 35.170281 -120.534589 308 2198ft 120kts
14-Sep-18 07:05 35.193163 -120.559122 311 1716ft 99kts
14-Sep-18 07:06 35.203748 -120.584778 272 1981ft 81kts
14-Sep-18 07:07 35.220300 -120.609916 296 1342ft 85kts
14-Sep-18 07:08 35.225728 -120.621007 318 840ft 88kts
14-Sep-18 07:09 35.234890 -120.636969 335 203ft 0kts
14-Sep-18 07:10 35.235281 -120.636366 72 205ft 0kts
14-Sep-18 07:11 35.236533 -120.635934 338 207ft 5kts
14-Sep-18 07:12 35.236543 -120.636020 241 206ft 0kts
14-Sep-18 07:13 35.236543 -120.636020 241 206ft 0kts
14-Sep-18 07:14 35.236543 -120.636020 241 206ft 0kts
14-Sep-18 07:15 35.236543 -120.636020 241 206ft 0kts
14-Sep-18 07:16 35.236543 -120.636020 241 206ft 0kts
14-Sep-18 07:17 35.236543 -120.636020 241 206ft 0kts
14-Sep-18 07:18 35.236543 -120.636020 241 206ft 0kts
14-Sep-18 07:19 35.236543 -120.636020 241 206ft 0kts
14-Sep-18 07:20 35.236543 -120.636020 241 206ft 0kts
14-Sep-18 07:21 35.236543 -120.636020 241 206ft 0kts
14-Sep-18 07:22 35.236543 -120.636020 241 206ft 0kts
14-Sep-18 07:23 35.236543 -120.636020 241 206ft 0kts
14-Sep-18 07:24 35.236543 -120.636020 241 206ft 0kts

Navigation Log

Ident Type
1. L88 Airport
2. KSBP Airport